Time;durP1;ratioP1;P1;durP2;ratioP2;P2;SDS_P1;SDS_P2;PMS_P1;PMS_P2;Temp;Humidity;BMP_temperature;BMP_pressure;BME280_temperature;BME280_humidity;BME280_pressure;Samples;Min_cycle;Max_cycle;Signal;HPM_P1;HPM_P2
2022/10/11 00:01:05;;;;;;;19.10;9.97;;;6.20;99.90;;;;;;5026682;28;20208;-60
2022/10/11 00:03:33;;;;;;;20.47;9.80;;;6.20;99.90;;;;;;5020166;28;20205;-60
2022/10/11 00:06:04;;;;;;;20.87;10.37;;;6.10;99.90;;;;;;5026975;28;20626;-60
2022/10/11 00:08:34;;;;;;;16.10;9.07;;;6.10;99.90;;;;;;5036783;28;20190;-60
2022/10/11 00:11:06;;;;;;;18.70;9.53;;;6.00;99.90;;;;;;5029078;28;20352;-60
2022/10/11 00:13:35;;;;;;;22.97;10.47;;;6.00;99.90;;;;;;5032107;28;20649;-60
2022/10/11 00:16:10;;;;;;;21.47;10.13;;;6.00;99.90;;;;;;5027948;28;20202;-60
2022/10/11 00:18:39;;;;;;;22.53;10.10;;;6.00;99.90;;;;;;5032447;28;20201;-60
2022/10/11 00:21:09;;;;;;;21.73;9.97;;;6.00;99.90;;;;;;5029702;28;20221;-60
2022/10/11 00:23:38;;;;;;;21.17;10.20;;;6.00;99.90;;;;;;5029213;28;20668;-60
2022/10/11 00:26:09;;;;;;;23.37;9.87;;;5.90;99.90;;;;;;5030530;28;20209;-60
2022/10/11 00:28:38;;;;;;;15.40;9.17;;;5.90;99.90;;;;;;5028451;28;20196;-60
2022/10/11 00:31:09;;;;;;;16.87;9.47;;;5.90;99.90;;;;;;5029046;28;20209;-60
2022/10/11 00:33:38;;;;;;;17.57;9.80;;;5.80;99.90;;;;;;5031617;28;20216;-60
2022/10/11 00:36:12;;;;;;;14.33;9.43;;;5.70;99.90;;;;;;5031058;28;20206;-60
2022/10/11 00:38:41;;;;;;;16.27;8.80;;;5.70;99.90;;;;;;5030190;28;20197;-60
2022/10/11 00:41:10;;;;;;;15.27;9.43;;;5.70;99.90;;;;;;5029391;28;20653;-60
2022/10/11 00:43:38;;;;;;;15.87;9.07;;;5.70;99.90;;;;;;5027515;28;20197;-60
2022/10/11 00:46:30;;;;;;;22.33;9.93;;;5.70;99.90;;;;;;5031229;28;20573;-60
2022/10/11 00:49:04;;;;;;;14.57;9.37;;;5.60;99.90;;;;;;5031962;28;20208;-60
2022/10/11 00:51:51;;;;;;;14.73;9.03;;;5.60;99.90;;;;;;5027680;28;20193;-60
2022/10/11 00:54:24;;;;;;;22.13;9.60;;;5.60;99.90;;;;;;5032027;28;20204;-60
2022/10/11 00:56:57;;;;;;;13.37;9.53;;;5.50;99.90;;;;;;5033316;28;20209;-60
2022/10/11 00:59:29;;;;;;;16.40;9.10;;;5.50;99.90;;;;;;5029278;28;20193;-60
2022/10/11 01:01:59;;;;;;;12.43;8.90;;;5.40;99.90;;;;;;5029605;28;20196;-60
2022/10/11 01:04:27;;;;;;;11.33;8.23;;;5.40;99.90;;;;;;5027780;28;20197;-61
2022/10/11 01:06:57;;;;;;;17.13;8.87;;;5.40;99.90;;;;;;5036175;28;20205;-60
2022/10/11 01:09:26;;;;;;;14.87;8.00;;;5.40;99.90;;;;;;5030988;28;20236;-60
2022/10/11 01:11:58;;;;;;;13.47;8.40;;;5.40;99.90;;;;;;5029466;28;20200;-60
2022/10/11 01:14:58;;;;;;;14.13;7.57;;;5.30;99.90;;;;;;5030133;28;20194;-60
2022/10/11 01:17:39;;;;;;;14.33;8.93;;;5.30;99.90;;;;;;5029697;28;20189;-60
2022/10/11 01:20:37;;;;;;;13.47;8.07;;;5.30;99.90;;;;;;5030056;28;20252;-60
2022/10/11 01:23:38;;;;;;;18.50;8.93;;;5.30;99.90;;;;;;5031428;28;20212;-60
2022/10/11 01:26:40;;;;;;;16.63;9.20;;;5.30;99.90;;;;;;5036642;28;20217;-60
2022/10/11 01:29:16;;;;;;;12.60;8.33;;;5.30;99.90;;;;;;5028122;28;20545;-60
2022/10/11 01:31:51;;;;;;;16.23;9.03;;;5.20;99.90;;;;;;5030798;28;20208;-60
2022/10/11 01:34:26;;;;;;;15.70;8.37;;;5.20;99.90;;;;;;5030655;28;20565;-60
2022/10/11 01:37:03;;;;;;;13.73;8.20;;;5.10;99.90;;;;;;5037485;28;20199;-60
2022/10/11 01:39:36;;;;;;;15.73;8.13;;;5.10;99.90;;;;;;5028167;28;20189;-60
2022/10/11 01:42:08;;;;;;;14.93;8.60;;;5.10;99.90;;;;;;5030602;28;20190;-60
2022/10/11 01:44:38;;;;;;;12.57;7.63;;;5.00;99.90;;;;;;5028069;28;20220;-60
2022/10/11 01:47:08;;;;;;;11.90;7.57;;;5.00;99.90;;;;;;5027500;28;20205;-60
2022/10/11 01:49:36;;;;;;;15.37;8.30;;;5.00;99.90;;;;;;5033452;28;20197;-60
2022/10/11 01:52:06;;;;;;;15.30;8.53;;;4.90;99.90;;;;;;5032743;28;20677;-60
2022/10/11 01:54:52;;;;;;;15.87;7.70;;;4.90;99.90;;;;;;5024676;28;20553;-60
2022/10/11 01:57:59;;;;;;;17.70;8.30;;;4.90;99.90;;;;;;5040167;28;20258;-60
2022/10/11 02:00:34;;;;;;;13.57;8.07;;;4.90;99.90;;;;;;5032804;28;20202;-60
2022/10/11 02:03:19;;;;;;;18.47;9.03;;;4.80;99.90;;;;;;5038227;28;20530;-60
2022/10/11 02:05:51;;;;;;;16.23;7.93;;;4.90;99.90;;;;;;5042566;28;20212;-60
2022/10/11 02:08:26;;;;;;;18.30;8.30;;;4.80;99.90;;;;;;5027429;28;20243;-60
2022/10/11 02:11:01;;;;;;;15.70;8.57;;;4.80;99.90;;;;;;5027229;28;20232;-60
2022/10/11 02:13:35;;;;;;;11.97;8.13;;;4.80;99.90;;;;;;5031471;28;20193;-60
2022/10/11 02:16:09;;;;;;;14.63;8.20;;;4.80;99.90;;;;;;5029833;28;20220;-60
2022/10/11 02:18:45;;;;;;;15.73;8.40;;;4.70;99.90;;;;;;5028402;28;20201;-60
2022/10/11 02:21:18;;;;;;;12.00;7.93;;;4.70;99.90;;;;;;5019117;28;20220;-60
2022/10/11 02:23:53;;;;;;;10.93;7.70;;;4.80;99.90;;;;;;5034133;28;20561;-60
2022/10/11 02:26:23;;;;;;;12.77;7.77;;;4.80;99.90;;;;;;5024647;28;20181;-60
2022/10/11 02:28:55;;;;;;;14.40;8.53;;;4.70;99.90;;;;;;5031960;28;20212;-60
2022/10/11 02:31:26;;;;;;;15.47;8.30;;;4.70;99.90;;;;;;5023058;28;20197;-60
2022/10/11 02:34:02;;;;;;;17.53;8.60;;;4.70;99.90;;;;;;5026447;28;20201;-60
2022/10/11 02:36:37;;;;;;;22.90;8.97;;;4.70;99.90;;;;;;5033001;28;20193;-60
2022/10/11 02:39:11;;;;;;;19.77;9.40;;;4.70;99.90;;;;;;5037536;28;20556;-60
2022/10/11 02:41:42;;;;;;;15.77;8.33;;;4.80;99.90;;;;;;5026215;28;20201;-60
2022/10/11 02:44:16;;;;;;;14.87;8.50;;;4.70;99.90;;;;;;5036158;28;20224;-60
2022/10/11 02:46:46;;;;;;;14.43;7.50;;;4.70;99.90;;;;;;5042306;28;20208;-60
2022/10/11 02:49:17;;;;;;;18.47;9.00;;;4.70;99.90;;;;;;5033267;28;20205;-60
2022/10/11 02:51:46;;;;;;;14.77;8.97;;;4.70;99.90;;;;;;5028603;28;20205;-60
2022/10/11 02:54:14;;;;;;;18.07;8.93;;;4.70;99.90;;;;;;5028434;28;20205;-60
2022/10/11 02:56:42;;;;;;;13.10;8.30;;;4.80;99.90;;;;;;5028108;28;20196;-60
2022/10/11 02:59:11;;;;;;;17.97;8.60;;;4.80;99.90;;;;;;5031854;28;20219;-60
2022/10/11 03:01:39;;;;;;;17.40;8.83;;;4.70;99.90;;;;;;5026340;28;20197;-60
2022/10/11 03:04:08;;;;;;;14.33;8.37;;;4.70;99.90;;;;;;5026846;28;20201;-60
2022/10/11 03:06:37;;;;;;;11.90;7.80;;;4.70;99.90;;;;;;5026942;28;20189;-60
2022/10/11 03:09:06;;;;;;;14.90;8.47;;;4.60;99.90;;;;;;5026827;28;20200;-59
2022/10/11 03:11:34;;;;;;;21.27;8.40;;;4.60;99.90;;;;;;5025471;28;20614;-60
2022/10/11 03:14:03;;;;;;;12.73;7.90;;;4.50;99.90;;;;;;5028792;28;20201;-59
2022/10/11 03:16:31;;;;;;;12.57;7.83;;;4.50;99.90;;;;;;5028636;28;20193;-60
2022/10/11 03:18:59;;;;;;;16.57;8.73;;;4.50;99.90;;;;;;5031398;28;20868;-60
2022/10/11 03:21:28;;;;;;;11.03;7.80;;;4.40;99.90;;;;;;5028227;28;20225;-60
2022/10/11 03:23:57;;;;;;;11.47;7.67;;;4.40;99.90;;;;;;5030202;28;20205;-60
2022/10/11 03:26:25;;;;;;;12.10;7.53;;;4.30;99.90;;;;;;5027468;28;20193;-60
2022/10/11 03:28:55;;;;;;;12.63;7.40;;;4.40;99.90;;;;;;5030411;28;20221;-60
2022/10/11 03:31:23;;;;;;;14.97;7.90;;;4.40;99.90;;;;;;5024096;28;20193;-60
2022/10/11 03:33:51;;;;;;;17.13;8.50;;;4.30;99.90;;;;;;5028601;28;20665;-60
2022/10/11 03:36:20;;;;;;;16.47;8.97;;;4.40;99.90;;;;;;5030840;28;20201;-60
2022/10/11 03:38:48;;;;;;;16.30;9.07;;;4.40;99.90;;;;;;5028779;28;20209;-60
2022/10/11 03:41:18;;;;;;;16.47;8.87;;;4.40;99.90;;;;;;5025739;28;20213;-60
2022/10/11 03:43:46;;;;;;;22.40;9.03;;;4.40;99.90;;;;;;5032876;28;20197;-60
2022/10/11 03:46:15;;;;;;;19.03;8.67;;;4.40;99.90;;;;;;5032450;28;20200;-60
2022/10/11 03:48:43;;;;;;;14.63;8.13;;;4.40;99.90;;;;;;5032570;28;20669;-60
2022/10/11 03:51:12;;;;;;;16.30;8.77;;;4.40;99.90;;;;;;5033960;28;20197;-60
2022/10/11 03:53:40;;;;;;;19.50;8.97;;;4.40;99.90;;;;;;5031836;28;20212;-60
2022/10/11 03:56:09;;;;;;;19.47;9.50;;;4.40;99.90;;;;;;5034839;28;20193;-60
2022/10/11 03:58:40;;;;;;;19.60;9.17;;;4.50;99.90;;;;;;5034650;28;20209;-60
2022/10/11 04:01:09;;;;;;;13.80;9.03;;;4.50;99.90;;;;;;5029118;28;20205;-60
2022/10/11 04:03:37;;;;;;;17.63;9.57;;;4.40;99.90;;;;;;5032603;28;20667;-60
2022/10/11 04:06:06;;;;;;;17.70;9.37;;;4.40;99.90;;;;;;5036447;28;20189;-60
2022/10/11 04:08:35;;;;;;;14.30;8.30;;;4.40;99.90;;;;;;5031064;28;20611;-60
2022/10/11 04:11:04;;;;;;;16.00;8.80;;;4.40;99.90;;;;;;5048484;28;20240;-60
2022/10/11 04:13:32;;;;;;;18.00;9.27;;;4.40;99.90;;;;;;5030477;28;20259;-60
2022/10/11 04:16:02;;;;;;;17.93;9.00;;;4.40;99.90;;;;;;5030783;28;20197;-60
2022/10/11 04:18:31;;;;;;;17.30;10.20;;;4.40;99.90;;;;;;5028465;28;20201;-60
2022/10/11 04:21:00;;;;;;;23.60;9.97;;;4.40;99.90;;;;;;5027107;28;20702;-60
2022/10/11 04:23:30;;;;;;;17.70;9.60;;;4.30;99.90;;;;;;5028295;28;20197;-60
2022/10/11 04:25:58;;;;;;;16.43;9.63;;;4.30;99.90;;;;;;5044619;28;20665;-60
2022/10/11 04:28:27;;;;;;;15.23;9.40;;;4.30;99.90;;;;;;5032424;28;20743;-60
2022/10/11 04:30:55;;;;;;;21.83;10.20;;;4.20;99.90;;;;;;5032177;28;20560;-60
2022/10/11 04:33:25;;;;;;;23.00;10.27;;;4.20;99.90;;;;;;5030405;28;20189;-60
2022/10/11 04:35:54;;;;;;;17.70;10.20;;;4.20;99.90;;;;;;5031922;28;20217;-60
2022/10/11 04:38:22;;;;;;;16.47;9.90;;;4.20;99.90;;;;;;5032338;28;20205;-59
2022/10/11 04:40:51;;;;;;;17.20;9.63;;;4.10;99.90;;;;;;5029188;28;20653;-60
2022/10/11 04:43:19;;;;;;;22.03;11.43;;;4.10;99.90;;;;;;5033965;28;20198;-60
2022/10/11 04:45:47;;;;;;;24.80;10.43;;;4.00;99.90;;;;;;5027191;28;20205;-60
2022/10/11 04:48:21;;;;;;;17.63;9.93;;;4.00;99.90;;;;;;5020440;28;20233;-60
2022/10/11 04:50:51;;;;;;;17.63;9.93;;;4.00;99.90;;;;;;5024166;28;20194;-60
2022/10/11 04:53:19;;;;;;;13.83;9.97;;;3.90;99.90;;;;;;5025863;28;20255;-60
2022/10/11 04:55:56;;;;;;;22.27;9.57;;;3.90;99.90;;;;;;5021029;28;20201;-60
2022/10/11 04:58:25;;;;;;;17.73;9.53;;;3.90;99.90;;;;;;5020289;28;20195;-60
2022/10/11 05:00:53;;;;;;;17.13;9.93;;;3.90;99.90;;;;;;4995173;28;20202;-59
2022/10/11 05:03:22;;;;;;;20.17;9.27;;;4.00;99.90;;;;;;5022342;28;20599;-60
2022/10/11 05:05:52;;;;;;;18.73;9.37;;;4.00;99.90;;;;;;5027625;28;20193;-60
2022/10/11 05:08:22;;;;;;;22.07;8.37;;;3.90;99.90;;;;;;5028482;28;20214;-60
2022/10/11 05:10:56;;;;;;;16.17;8.53;;;3.90;99.90;;;;;;5029549;28;20725;-60
2022/10/11 05:13:24;;;;;;;16.80;8.30;;;3.90;99.90;;;;;;5034363;28;20194;-60
2022/10/11 05:15:53;;;;;;;13.17;7.97;;;3.90;99.90;;;;;;5031753;28;20656;-60
2022/10/11 05:18:21;;;;;;;16.70;8.50;;;3.90;99.90;;;;;;5029768;28;20205;-60
2022/10/11 05:20:59;;;;;;;15.93;8.53;;;3.80;99.90;;;;;;5015373;28;20225;-59
2022/10/11 05:23:27;;;;;;;17.60;8.60;;;3.80;99.90;;;;;;5021352;28;20212;-60
2022/10/11 05:25:56;;;;;;;17.50;9.23;;;3.80;99.90;;;;;;5027230;28;20622;-60
2022/10/11 05:28:24;;;;;;;15.30;8.43;;;3.80;99.90;;;;;;5023523;28;20213;-60
2022/10/11 05:30:53;;;;;;;14.77;9.27;;;3.80;99.90;;;;;;5021700;28;20196;-60
2022/10/11 05:33:21;;;;;;;17.77;9.27;;;3.80;99.90;;;;;;5020339;28;20212;-60
2022/10/11 05:35:51;;;;;;;14.77;8.97;;;3.90;99.90;;;;;;5026897;28;20205;-60
2022/10/11 05:38:20;;;;;;;16.50;10.50;;;3.90;99.90;;;;;;5030581;28;20201;-60
2022/10/11 05:40:49;;;;;;;21.73;10.03;;;3.90;99.90;;;;;;5006209;28;20284;-60
2022/10/11 05:43:17;;;;;;;19.47;10.27;;;3.90;99.90;;;;;;5025251;28;20649;-59
2022/10/11 05:45:46;;;;;;;19.70;10.60;;;3.80;99.90;;;;;;5020654;28;20208;-60
2022/10/11 05:48:14;;;;;;;27.27;13.43;;;3.80;99.90;;;;;;5016994;28;20253;-60
2022/10/11 05:50:42;;;;;;;27.90;14.00;;;3.80;99.90;;;;;;5025352;28;20228;-59
2022/10/11 05:53:12;;;;;;;22.93;12.90;;;3.80;99.90;;;;;;5025603;28;20213;-60
2022/10/11 05:55:42;;;;;;;21.97;11.33;;;3.90;99.90;;;;;;5026802;28;20630;-60
2022/10/11 05:58:13;;;;;;;20.67;11.20;;;3.80;99.90;;;;;;5029340;28;20304;-60
2022/10/11 06:00:42;;;;;;;23.67;11.17;;;3.80;99.90;;;;;;5034179;28;20546;-60
2022/10/11 06:03:12;;;;;;;23.03;10.87;;;3.90;99.90;;;;;;5031486;28;20197;-60
2022/10/11 06:05:41;;;;;;;19.70;10.47;;;3.90;99.90;;;;;;5030047;28;20197;-60
2022/10/11 06:08:10;;;;;;;20.30;11.20;;;3.90;99.90;;;;;;5034849;28;20193;-59
2022/10/11 06:10:40;;;;;;;19.93;10.70;;;3.80;99.90;;;;;;5029694;28;20241;-60
2022/10/11 06:13:09;;;;;;;26.77;11.33;;;3.80;99.90;;;;;;5033366;28;20205;-61
2022/10/11 06:15:39;;;;;;;17.40;10.90;;;3.80;99.90;;;;;;5027974;28;20190;-61
2022/10/11 06:18:07;;;;;;;24.43;11.47;;;3.80;99.90;;;;;;5029235;28;20193;-59
2022/10/11 06:20:36;;;;;;;20.00;10.70;;;3.80;99.90;;;;;;5041469;28;20209;-59
2022/10/11 06:23:05;;;;;;;20.63;10.73;;;3.90;99.90;;;;;;5037536;28;20200;-60
2022/10/11 06:25:33;;;;;;;23.97;10.87;;;3.90;99.90;;;;;;5030935;28;20204;-61
2022/10/11 06:28:03;;;;;;;25.97;12.00;;;4.00;99.90;;;;;;5031200;28;20210;-61
2022/10/11 06:30:31;;;;;;;21.23;11.87;;;4.00;99.90;;;;;;5025404;28;20252;-61
2022/10/11 06:32:59;;;;;;;17.17;10.70;;;4.10;99.90;;;;;;5028455;28;20197;-59
2022/10/11 06:35:32;;;;;;;20.50;11.87;;;4.10;99.90;;;;;;5025508;28;20193;-59
2022/10/11 06:38:00;;;;;;;17.87;11.27;;;4.10;99.90;;;;;;5024995;28;20197;-59
2022/10/11 06:40:28;;;;;;;23.57;11.30;;;4.20;99.90;;;;;;5032561;28;20192;-59
2022/10/11 06:42:57;;;;;;;19.20;11.80;;;4.20;99.90;;;;;;5036803;28;20185;-59
2022/10/11 06:45:27;;;;;;;20.63;11.13;;;4.30;99.90;;;;;;5033273;28;20205;-59
2022/10/11 06:47:55;;;;;;;19.23;11.60;;;4.40;99.90;;;;;;5042578;28;20198;-59
2022/10/11 06:50:24;;;;;;;22.57;10.90;;;4.40;99.90;;;;;;5031629;28;20669;-59
2022/10/11 06:53:12;;;;;;;19.63;10.90;;;4.50;99.90;;;;;;5027295;28;20272;-59
2022/10/11 06:55:40;;;;;;;19.93;10.97;;;4.70;99.90;;;;;;5028796;28;20561;-59
2022/10/11 06:58:09;;;;;;;21.47;11.33;;;4.80;99.90;;;;;;5031107;28;20222;-59
2022/10/11 07:00:38;;;;;;;19.33;10.83;;;4.90;99.90;;;;;;5027897;28;20185;-59
2022/10/11 07:03:08;;;;;;;21.27;11.47;;;5.00;99.90;;;;;;5030907;28;20202;-59
2022/10/11 07:05:36;;;;;;;18.53;10.77;;;5.10;99.90;;;;;;5032993;28;20182;-59
2022/10/11 07:08:05;;;;;;;18.37;11.10;;;5.20;99.90;;;;;;5027259;28;20224;-59
2022/10/11 07:10:35;;;;;;;23.60;11.10;;;5.30;99.90;;;;;;5027621;28;20236;-59
2022/10/11 07:13:03;;;;;;;13.97;10.40;;;5.50;99.90;;;;;;5031414;28;20185;-59
2022/10/11 07:15:33;;;;;;;25.50;12.20;;;5.80;99.90;;;;;;5027071;28;20197;-59
2022/10/11 07:18:03;;;;;;;20.10;11.20;;;5.90;99.90;;;;;;5049450;28;20638;-59
2022/10/11 07:20:31;;;;;;;28.57;12.80;;;6.10;99.90;;;;;;5030563;28;20241;-59
2022/10/11 07:22:59;;;;;;;28.90;13.00;;;6.40;99.90;;;;;;5037696;28;20209;-60
2022/10/11 07:25:28;;;;;;;26.37;12.97;;;6.60;99.90;;;;;;5027523;28;20191;-59
2022/10/11 07:27:56;;;;;;;42.43;23.40;;;6.70;99.90;;;;;;5026468;28;20217;-59
2022/10/11 07:30:25;;;;;;;33.17;17.67;;;6.90;99.90;;;;;;5030983;28;20581;-59
2022/10/11 07:32:53;;;;;;;30.43;15.03;;;7.10;99.90;;;;;;5035544;28;20202;-59
2022/10/11 07:35:23;;;;;;;25.93;13.07;;;7.40;99.90;;;;;;5035268;28;20189;-59
2022/10/11 07:37:51;;;;;;;25.13;12.13;;;7.60;99.90;;;;;;5033845;28;20201;-59
2022/10/11 07:40:20;;;;;;;33.60;20.83;;;7.70;99.90;;;;;;5033522;28;20196;-59
2022/10/11 07:42:48;;;;;;;45.33;28.93;;;7.60;99.90;;;;;;5035566;28;20576;-59
2022/10/11 07:45:17;;;;;;;38.10;28.20;;;7.70;99.90;;;;;;5031753;28;20764;-59
2022/10/11 07:47:45;;;;;;;26.23;18.20;;;7.90;99.90;;;;;;5029091;28;20201;-60
2022/10/11 07:50:14;;;;;;;27.43;13.27;;;8.10;99.90;;;;;;5032404;28;20243;-59
2022/10/11 07:52:44;;;;;;;22.93;11.73;;;8.40;99.90;;;;;;5039965;28;20201;-59
2022/10/11 07:55:12;;;;;;;19.07;10.17;;;8.70;99.90;;;;;;5029806;28;20704;-59
2022/10/11 07:57:41;;;;;;;33.10;17.37;;;8.90;99.90;;;;;;5036891;28;20296;-59
2022/10/11 08:00:11;;;;;;;26.17;17.17;;;9.20;99.90;;;;;;5029793;28;20514;-59
2022/10/11 08:02:39;;;;;;;27.33;17.10;;;9.50;99.90;;;;;;5020483;28;20201;-59
2022/10/11 08:05:08;;;;;;;30.43;15.33;;;9.80;99.90;;;;;;5034328;28;20205;-59
2022/10/11 08:07:37;;;;;;;21.53;11.63;;;10.00;99.90;;;;;;5028754;28;20209;-59
2022/10/11 08:10:10;;;;;;;29.90;16.13;;;10.20;99.90;;;;;;5032139;28;20320;-59
2022/10/11 08:12:39;;;;;;;29.83;12.37;;;10.20;99.90;;;;;;5034080;28;20218;-60
2022/10/11 08:15:08;;;;;;;27.80;11.50;;;10.40;99.90;;;;;;5031923;28;20200;-59
2022/10/11 08:17:36;;;;;;;29.27;11.67;;;10.50;99.90;;;;;;5027898;28;20689;-59
2022/10/11 08:20:05;;;;;;;18.53;10.07;;;10.60;99.90;;;;;;5034929;28;20198;-60
2022/10/11 08:22:33;;;;;;;24.63;10.27;;;10.70;99.90;;;;;;5027865;28;20196;-60
2022/10/11 08:25:02;;;;;;;24.83;10.30;;;10.80;99.90;;;;;;5028498;28;20208;-59
2022/10/11 08:27:32;;;;;;;20.80;9.53;;;10.90;99.90;;;;;;5027112;28;20193;-60
2022/10/11 08:30:00;;;;;;;22.47;11.13;;;11.00;99.90;;;;;;5026626;28;20221;-60
2022/10/11 08:32:29;;;;;;;40.63;19.30;;;11.10;99.90;;;;;;5031933;28;20197;-60
2022/10/11 08:34:58;;;;;;;97.27;41.13;;;11.10;99.90;;;;;;5034032;28;20209;-60
2022/10/11 08:37:27;;;;;;;62.13;28.07;;;11.20;99.90;;;;;;5025121;28;20220;-60
2022/10/11 08:39:55;;;;;;;74.50;43.83;;;11.20;99.90;;;;;;5030602;28;20185;-60
2022/10/11 08:42:33;;;;;;;30.87;17.73;;;11.30;99.90;;;;;;5029067;28;20224;-59
2022/10/11 08:45:08;;;;;;;16.80;8.33;;;11.40;99.90;;;;;;5028348;28;21710;-59
2022/10/11 08:47:42;;;;;;;18.40;8.27;;;11.40;99.90;;;;;;5030240;28;20546;-60
2022/10/11 08:50:20;;;;;;;17.13;8.13;;;11.40;99.90;;;;;;5027804;28;20225;-60
2022/10/11 08:52:53;;;;;;;21.67;8.67;;;11.50;99.90;;;;;;5031404;28;20197;-60
2022/10/11 08:55:26;;;;;;;16.63;8.63;;;11.60;99.90;;;;;;5043175;28;20189;-60
2022/10/11 08:57:56;;;;;;;18.10;7.40;;;11.70;99.90;;;;;;5028154;28;20599;-59
2022/10/11 09:00:30;;;;;;;15.97;7.00;;;11.80;99.90;;;;;;5026953;28;20201;-60
2022/10/11 09:03:05;;;;;;;15.13;5.73;;;11.90;99.90;;;;;;5025864;28;21034;-60
2022/10/11 09:06:00;;;;;;;9.33;5.93;;;12.10;99.90;;;;;;5019155;28;20185;-60
2022/10/11 09:08:37;;;;;;;17.33;5.97;;;12.20;99.90;;;;;;5029401;28;20197;-60
2022/10/11 09:11:14;;;;;;;13.50;6.40;;;12.40;99.90;;;;;;5027846;28;20236;-60
2022/10/11 09:14:01;;;;;;;15.23;5.77;;;12.60;99.90;;;;;;5031415;28;20201;-59
2022/10/11 09:16:41;;;;;;;16.00;5.63;;;12.80;99.90;;;;;;5027170;28;20284;-60
2022/10/11 09:19:24;;;;;;;12.27;5.40;;;13.10;99.90;;;;;;5031590;28;20194;-60
2022/10/11 09:22:02;;;;;;;16.87;5.20;;;13.30;99.90;;;;;;5028654;28;20204;-60
2022/10/11 09:24:47;;;;;;;12.27;6.27;;;13.30;99.90;;;;;;5029248;28;20224;-60
2022/10/11 09:27:20;;;;;;;15.33;5.30;;;13.50;99.90;;;;;;5033070;28;20194;-60
2022/10/11 09:30:13;;;;;;;15.90;5.67;;;13.60;99.90;;;;;;5027421;28;20889;-60
2022/10/11 09:32:46;;;;;;;9.93;4.97;;;13.80;99.90;;;;;;5028067;28;20529;-60
2022/10/11 09:35:18;;;;;;;13.93;5.67;;;14.00;99.90;;;;;;5034242;28;20189;-60
2022/10/11 09:37:54;;;;;;;12.77;5.30;;;14.10;99.90;;;;;;5030637;28;20205;-59
2022/10/11 09:40:35;;;;;;;12.37;4.53;;;14.20;99.90;;;;;;5031315;28;20549;-59
2022/10/11 09:43:03;;;;;;;10.40;4.60;;;14.30;99.90;;;;;;5024975;28;20193;-59
2022/10/11 09:45:32;;;;;;;15.50;4.07;;;14.50;99.90;;;;;;5038015;28;20198;-60
2022/10/11 09:48:04;;;;;;;12.90;4.50;;;14.60;99.90;;;;;;5029238;28;20201;-60
2022/10/11 09:50:34;;;;;;;9.97;3.70;;;14.80;99.90;;;;;;5033611;28;20684;-59
2022/10/11 09:53:06;;;;;;;13.23;4.10;;;15.00;99.90;;;;;;5026622;28;20205;-60
2022/10/11 09:55:39;;;;;;;6.37;3.70;;;15.00;99.90;;;;;;5028038;28;20205;-60
2022/10/11 09:58:26;;;;;;;8.20;3.37;;;15.00;99.90;;;;;;5023473;28;20252;-59
2022/10/11 10:01:01;;;;;;;11.57;3.83;;;15.10;99.90;;;;;;5033114;28;20202;-60
2022/10/11 10:03:38;;;;;;;12.93;3.30;;;15.20;99.90;;;;;;5030082;28;20653;-59
2022/10/11 10:06:09;;;;;;;8.37;2.83;;;15.30;99.90;;;;;;5025659;28;20677;-60
2022/10/11 10:08:37;;;;;;;9.97;3.30;;;15.40;99.90;;;;;;5031902;28;20661;-60
2022/10/11 10:11:07;;;;;;;7.93;2.57;;;15.50;99.90;;;;;;5031806;28;20249;-60
2022/10/11 10:13:48;;;;;;;9.60;2.83;;;15.50;99.90;;;;;;5022582;28;20202;-59
2022/10/11 10:16:25;;;;;;;13.57;3.00;;;15.60;99.90;;;;;;5038866;28;20194;-59
2022/10/11 10:18:58;;;;;;;10.23;2.83;;;15.80;99.90;;;;;;5025176;28;21178;-59
2022/10/11 10:21:29;;;;;;;23.40;3.80;;;15.80;99.90;;;;;;5027298;28;20211;-59
2022/10/11 10:24:02;;;;;;;16.50;5.13;;;16.00;99.90;;;;;;5026591;28;20272;-59
2022/10/11 10:26:32;;;;;;;9.40;2.67;;;15.90;99.90;;;;;;5033140;28;20196;-59
2022/10/11 10:29:06;;;;;;;7.73;2.90;;;16.00;99.90;;;;;;5028752;28;20198;-59
2022/10/11 10:31:37;;;;;;;12.43;2.73;;;16.30;99.90;;;;;;5025621;28;20551;-59
2022/10/11 10:34:30;;;;;;;11.43;3.17;;;16.40;99.90;;;;;;5024468;28;20195;-59
2022/10/11 10:37:03;;;;;;;7.63;2.53;;;16.40;99.90;;;;;;5012454;28;20248;-59
2022/10/11 10:39:38;;;;;;;11.17;3.10;;;16.50;99.90;;;;;;5025703;28;20212;-59
2022/10/11 10:42:14;;;;;;;7.10;2.30;;;16.60;99.90;;;;;;5026680;28;20207;-59
2022/10/11 10:44:44;;;;;;;7.40;3.30;;;16.70;99.90;;;;;;5024771;28;20196;-59
2022/10/11 10:47:19;;;;;;;4.80;2.90;;;16.70;99.90;;;;;;5037177;28;20210;-59
2022/10/11 10:49:56;;;;;;;8.70;2.30;;;16.70;99.90;;;;;;5019506;28;20201;-59
2022/10/11 10:52:46;;;;;;;7.40;2.20;;;16.80;99.90;;;;;;5023714;28;20681;-59
2022/10/11 10:55:28;;;;;;;6.77;2.37;;;16.80;99.90;;;;;;5009725;28;20202;-59
2022/10/11 10:58:08;;;;;;;8.37;2.40;;;16.90;99.90;;;;;;5025287;28;20208;-59
2022/10/11 11:00:44;;;;;;;5.40;2.00;;;17.10;99.90;;;;;;5025032;28;20211;-59
2022/10/11 11:03:18;;;;;;;9.03;2.13;;;17.20;99.90;;;;;;5022137;28;20267;-59
2022/10/11 11:06:02;;;;;;;9.73;2.33;;;17.40;99.90;;;;;;5016741;28;20251;-59
2022/10/11 11:09:03;;;;;;;12.73;2.77;;;17.50;99.90;;;;;;5025289;28;20228;-59
2022/10/11 11:11:42;;;;;;;7.93;2.53;;;17.50;99.90;;;;;;4977710;28;20240;-59
2022/10/11 11:14:27;;;;;;;7.60;2.57;;;17.40;99.90;;;;;;5023634;28;20252;-59
2022/10/11 11:17:05;;;;;;;5.30;2.23;;;17.00;99.90;;;;;;5040462;28;20219;-59
2022/10/11 11:19:43;;;;;;;5.67;2.37;;;17.00;99.90;;;;;;5027709;28;20194;-59
2022/10/11 11:22:22;;;;;;;7.33;2.33;;;17.10;99.90;;;;;;5026804;28;20193;-59
2022/10/11 11:25:02;;;;;;;7.43;2.40;;;17.50;99.90;;;;;;5027444;28;20232;-59
2022/10/11 11:27:44;;;;;;;6.33;2.30;;;17.40;99.90;;;;;;5028687;28;20201;-59
2022/10/11 11:30:17;;;;;;;6.63;2.40;;;17.10;99.90;;;;;;5028689;28;20198;-59
2022/10/11 11:32:53;;;;;;;8.53;2.67;;;16.80;99.90;;;;;;5027983;28;20229;-59
2022/10/11 11:35:28;;;;;;;8.47;2.57;;;16.50;99.90;;;;;;5025763;28;20564;-59
2022/10/11 11:38:04;;;;;;;11.50;2.53;;;16.40;99.90;;;;;;5027603;28;20205;-59
2022/10/11 11:40:38;;;;;;;8.57;2.47;;;16.70;99.90;;;;;;5023921;28;20237;-59
2022/10/11 11:43:15;;;;;;;11.10;2.60;;;17.10;99.90;;;;;;5028751;28;20545;-59
2022/10/11 11:45:48;;;;;;;7.77;2.63;;;17.60;99.90;;;;;;5028675;28;20204;-59
2022/10/11 11:48:23;;;;;;;8.13;2.63;;;17.90;99.90;;;;;;5029084;28;20204;-59
2022/10/11 11:50:58;;;;;;;9.67;3.27;;;17.90;99.90;;;;;;5028135;28;20201;-60
2022/10/11 11:53:47;;;;;;;4.47;2.10;;;18.10;99.90;;;;;;5040322;28;20219;-59
2022/10/11 11:56:26;;;;;;;5.93;2.13;;;18.00;99.90;;;;;;5025078;28;20186;-59
2022/10/11 11:59:03;;;;;;;6.77;2.37;;;17.70;99.90;;;;;;5026135;28;20202;-59
2022/10/11 12:01:39;;;;;;;8.37;2.30;;;17.40;99.90;;;;;;5021893;28;20193;-59
2022/10/11 12:04:19;;;;;;;8.00;2.70;;;16.90;99.90;;;;;;5028154;28;20200;-59
2022/10/11 12:07:00;;;;;;;9.20;2.50;;;16.60;99.90;;;;;;5031895;28;20205;-59
2022/10/11 12:09:49;;;;;;;9.10;2.37;;;16.70;99.90;;;;;;5032382;28;20302;-59
2022/10/11 12:12:30;;;;;;;5.67;2.40;;;16.90;99.90;;;;;;5025169;28;20226;-59
2022/10/11 12:15:19;;;;;;;6.33;2.23;;;17.20;99.90;;;;;;5029927;28;20433;-59
2022/10/11 12:18:04;;;;;;;13.77;2.37;;;17.40;99.90;;;;;;5025506;28;20561;-59
2022/10/11 12:20:35;;;;;;;6.17;2.07;;;17.80;99.90;;;;;;5028578;28;20251;-59
2022/10/11 12:23:25;;;;;;;5.70;1.87;;;18.00;99.90;;;;;;5031008;28;20190;-59
2022/10/11 12:26:18;;;;;;;9.90;2.47;;;18.30;99.90;;;;;;5029438;28;20285;-59
2022/10/11 12:29:19;;;;;;;10.60;2.17;;;18.40;99.90;;;;;;5031231;28;20202;-59
2022/10/11 12:32:42;;;;;;;8.17;2.47;;;18.10;99.90;;;;;;5028247;28;20222;-59
2022/10/11 12:35:41;;;;;;;6.60;2.00;;;18.00;99.90;;;;;;4944355;28;20208;-60
2022/10/11 12:38:20;;;;;;;3.17;1.90;;;18.20;99.90;;;;;;4940090;28;20272;-59
2022/10/11 12:40:50;;;;;;;9.63;2.43;;;18.50;99.90;;;;;;5007329;28;20213;-60
2022/10/11 12:43:46;;;;;;;9.13;2.73;;;18.70;99.90;;;;;;5030615;28;20221;-59
2022/10/11 12:47:00;;;;;;;5.60;2.10;;;18.90;99.90;;;;;;5029278;28;20204;-59
2022/10/11 12:49:46;;;;;;;3.03;2.00;;;19.00;99.90;;;;;;5032186;28;20736;-59
2022/10/11 12:52:32;;;;;;;5.17;2.20;;;19.00;99.90;;;;;;5023852;28;20297;-60
2022/10/11 12:55:13;;;;;;;8.27;2.10;;;19.00;99.90;;;;;;5034355;28;20197;-59
2022/10/11 12:58:08;;;;;;;8.97;2.73;;;19.00;99.90;;;;;;5034092;28;20205;-59
2022/10/11 13:01:00;;;;;;;6.33;2.20;;;19.10;99.90;;;;;;5024279;28;20189;-59
2022/10/11 13:03:30;;;;;;;8.80;2.30;;;19.00;99.90;;;;;;5034571;28;20235;-59
2022/10/11 13:06:09;;;;;;;8.67;2.13;;;18.90;99.90;;;;;;5034154;28;20531;-59
2022/10/11 13:08:43;;;;;;;7.30;2.10;;;19.00;99.90;;;;;;5022025;28;20200;-59
2022/10/11 13:11:18;;;;;;;6.93;1.93;;;18.80;99.90;;;;;;5034984;28;20237;-59
2022/10/11 13:13:52;;;;;;;8.27;2.20;;;18.60;99.90;;;;;;5033148;28;20556;-59
2022/10/11 13:16:24;;;;;;;4.07;2.00;;;18.50;99.90;;;;;;5036187;28;20198;-59